Bakerhill, Alabama
Current Conditions -  °F | °C
As of 4:58 PM on Thursday 18 Dec 2014 (Local Time) from KEUF Reporting Station
Scattered Clouds Scattered Clouds  
Wind Chill: 53°   Ceiling: Unl
Heat Index: 53°   Visibility: 10mi
Dew Point: 40°   Wind: 0mph
Humidity: 61%   Direction: NA
Pressure: 30.1"   Gusts: NA
Location:  31.9293°N, 85.2612°W
Report Text: KEUF 182258Z AUTO 00000KT 10SM SCT050 12/04 A3010 RMK AO2 SLP193 T01170044
Loading
Personal Weather Stations






























Interactive Weather Map New forecast layout! Learn more

10-Day Weather Forecast

Advertisements
Track Severe Weather on mobile